sensor_id;sensor_type;location;lat;lon;timestamp;temperature;humidity
45283;DHT22;31023;44.994;1.796;2022-12-18T00:01:37;-1.70;99.90
45283;DHT22;31023;44.994;1.796;2022-12-18T00:04:05;-1.70;99.90
45283;DHT22;31023;44.994;1.796;2022-12-18T00:06:32;-1.70;99.90
45283;DHT22;31023;44.994;1.796;2022-12-18T00:08:58;-1.70;99.90
45283;DHT22;31023;44.994;1.796;2022-12-18T00:11:27;-1.60;99.90
45283;DHT22;31023;44.994;1.796;2022-12-18T00:13:54;-1.60;99.90
45283;DHT22;31023;44.994;1.796;2022-12-18T00:16:21;-1.50;99.90
45283;DHT22;31023;44.994;1.796;2022-12-18T00:18:49;-1.50;99.90
45283;DHT22;31023;44.994;1.796;2022-12-18T00:21:15;-1.50;99.90
45283;DHT22;31023;44.994;1.796;2022-12-18T00:23:43;-1.50;99.90
45283;DHT22;31023;44.994;1.796;2022-12-18T00:26:14;-1.50;99.90
45283;DHT22;31023;44.994;1.796;2022-12-18T00:28:41;-1.50;99.90
45283;DHT22;31023;44.994;1.796;2022-12-18T00:31:10;-1.50;99.90
45283;DHT22;31023;44.994;1.796;2022-12-18T00:33:36;-1.50;99.90
45283;DHT22;31023;44.994;1.796;2022-12-18T00:36:07;-1.40;99.90
45283;DHT22;31023;44.994;1.796;2022-12-18T00:38:33;-1.40;99.90
45283;DHT22;31023;44.994;1.796;2022-12-18T00:40:59;-1.50;99.90
45283;DHT22;31023;44.994;1.796;2022-12-18T00:43:25;-1.50;99.90
45283;DHT22;31023;44.994;1.796;2022-12-18T00:45:50;-1.50;99.90
45283;DHT22;31023;44.994;1.796;2022-12-18T00:48:16;-1.50;99.90
45283;DHT22;31023;44.994;1.796;2022-12-18T00:50:42;-1.50;99.90
45283;DHT22;31023;44.994;1.796;2022-12-18T00:53:11;-1.50;99.90
45283;DHT22;31023;44.994;1.796;2022-12-18T00:55:41;-1.50;99.90
45283;DHT22;31023;44.994;1.796;2022-12-18T00:58:08;-1.60;99.90
45283;DHT22;31023;44.994;1.796;2022-12-18T01:00:34;-1.50;99.90
45283;DHT22;31023;44.994;1.796;2022-12-18T01:02:59;-1.50;99.90
45283;DHT22;31023;44.994;1.796;2022-12-18T01:05:26;-1.50;99.90
45283;DHT22;31023;44.994;1.796;2022-12-18T01:07:51;-1.50;99.90
45283;DHT22;31023;44.994;1.796;2022-12-18T01:10:17;-1.50;99.90
45283;DHT22;31023;44.994;1.796;2022-12-18T01:12:43;-1.60;99.90
45283;DHT22;31023;44.994;1.796;2022-12-18T01:15:09;-1.50;99.90
45283;DHT22;31023;44.994;1.796;2022-12-18T01:17:35;-1.50;99.90
45283;DHT22;31023;44.994;1.796;2022-12-18T01:20:01;-1.50;99.90
45283;DHT22;31023;44.994;1.796;2022-12-18T01:22:27;-1.60;99.90
45283;DHT22;31023;44.994;1.796;2022-12-18T01:24:52;-1.50;99.90
45283;DHT22;31023;44.994;1.796;2022-12-18T01:27:18;-1.50;99.90
45283;DHT22;31023;44.994;1.796;2022-12-18T01:29:44;-1.60;99.90
45283;DHT22;31023;44.994;1.796;2022-12-18T01:32:09;-1.70;99.90
45283;DHT22;31023;44.994;1.796;2022-12-18T01:34:36;-1.70;99.90
45283;DHT22;31023;44.994;1.796;2022-12-18T01:37:03;-1.60;99.90
45283;DHT22;31023;44.994;1.796;2022-12-18T01:39:28;-1.60;99.90
45283;DHT22;31023;44.994;1.796;2022-12-18T01:41:54;-1.60;99.90
45283;DHT22;31023;44.994;1.796;2022-12-18T01:47:49;-1.70;99.90
45283;DHT22;31023;44.994;1.796;2022-12-18T01:50:22;-1.70;99.90
45283;DHT22;31023;44.994;1.796;2022-12-18T01:52:54;-1.60;99.90
45283;DHT22;31023;44.994;1.796;2022-12-18T01:55:23;-1.50;99.90
45283;DHT22;31023;44.994;1.796;2022-12-18T01:57:52;-1.40;99.90
45283;DHT22;31023;44.994;1.796;2022-12-18T02:00:20;-1.40;99.90
45283;DHT22;31023;44.994;1.796;2022-12-18T02:02:47;-1.50;99.90
45283;DHT22;31023;44.994;1.796;2022-12-18T02:05:17;-1.60;99.90
45283;DHT22;31023;44.994;1.796;2022-12-18T02:10:31;-1.50;99.90
45283;DHT22;31023;44.994;1.796;2022-12-18T02:15:51;-1.60;99.90
45283;DHT22;31023;44.994;1.796;2022-12-18T02:18:36;-1.50;99.90
45283;DHT22;31023;44.994;1.796;2022-12-18T02:21:12;-1.60;99.90
45283;DHT22;31023;44.994;1.796;2022-12-18T02:26:53;-1.50;99.90
45283;DHT22;31023;44.994;1.796;2022-12-18T02:29:24;-1.60;99.90
45283;DHT22;31023;44.994;1.796;2022-12-18T02:31:56;-1.60;99.90
45283;DHT22;31023;44.994;1.796;2022-12-18T02:34:28;-1.60;99.90
45283;DHT22;31023;44.994;1.796;2022-12-18T02:36:56;-1.50;99.90
45283;DHT22;31023;44.994;1.796;2022-12-18T02:39:25;-1.50;99.90
45283;DHT22;31023;44.994;1.796;2022-12-18T02:41:52;-1.50;99.90
45283;DHT22;31023;44.994;1.796;2022-12-18T02:44:18;-1.60;99.90
45283;DHT22;31023;44.994;1.796;2022-12-18T02:46:50;-1.50;99.90
45283;DHT22;31023;44.994;1.796;2022-12-18T02:52:26;-1.50;99.90
45283;DHT22;31023;44.994;1.796;2022-12-18T02:57:44;-1.40;99.90
45283;DHT22;31023;44.994;1.796;2022-12-18T03:00:24;-1.40;99.90
45283;DHT22;31023;44.994;1.796;2022-12-18T03:03:09;-1.40;99.90
45283;DHT22;31023;44.994;1.796;2022-12-18T03:05:45;-1.40;99.90
45283;DHT22;31023;44.994;1.796;2022-12-18T03:08:24;-1.40;99.90
45283;DHT22;31023;44.994;1.796;2022-12-18T03:10:58;-1.40;99.90
45283;DHT22;31023;44.994;1.796;2022-12-18T03:13:32;-1.50;99.90
45283;DHT22;31023;44.994;1.796;2022-12-18T03:15:59;-1.50;99.90
45283;DHT22;31023;44.994;1.796;2022-12-18T03:18:32;-1.50;99.90
45283;DHT22;31023;44.994;1.796;2022-12-18T03:21:04;-1.50;99.90
45283;DHT22;31023;44.994;1.796;2022-12-18T03:23:35;-1.50;99.90
45283;DHT22;31023;44.994;1.796;2022-12-18T03:26:06;-1.50;99.90
45283;DHT22;31023;44.994;1.796;2022-12-18T03:28:38;-1.60;99.90
45283;DHT22;31023;44.994;1.796;2022-12-18T03:31:08;-1.70;99.90
45283;DHT22;31023;44.994;1.796;2022-12-18T03:33:41;-1.70;99.90
45283;DHT22;31023;44.994;1.796;2022-12-18T03:36:09;-1.60;99.90
45283;DHT22;31023;44.994;1.796;2022-12-18T03:38:35;-1.60;99.90
45283;DHT22;31023;44.994;1.796;2022-12-18T03:41:24;-1.60;99.90
45283;DHT22;31023;44.994;1.796;2022-12-18T03:44:16;-1.50;99.90
45283;DHT22;31023;44.994;1.796;2022-12-18T03:49:11;-1.50;99.90
45283;DHT22;31023;44.994;1.796;2022-12-18T03:52:06;-1.50;99.90
45283;DHT22;31023;44.994;1.796;2022-12-18T03:54:33;-1.40;99.90
45283;DHT22;31023;44.994;1.796;2022-12-18T03:57:26;-1.40;99.90
45283;DHT22;31023;44.994;1.796;2022-12-18T03:59:56;-1.40;99.90
45283;DHT22;31023;44.994;1.796;2022-12-18T04:02:23;-1.40;99.90
45283;DHT22;31023;44.994;1.796;2022-12-18T04:04:52;-1.40;99.90
45283;DHT22;31023;44.994;1.796;2022-12-18T04:07:20;-1.50;99.90
45283;DHT22;31023;44.994;1.796;2022-12-18T04:09:47;-1.50;99.90
45283;DHT22;31023;44.994;1.796;2022-12-18T04:12:13;-1.40;99.90
45283;DHT22;31023;44.994;1.796;2022-12-18T04:14:39;-1.50;99.90
45283;DHT22;31023;44.994;1.796;2022-12-18T04:17:05;-1.40;99.90
45283;DHT22;31023;44.994;1.796;2022-12-18T04:19:31;-1.40;99.90
45283;DHT22;31023;44.994;1.796;2022-12-18T04:21:56;-1.40;99.90
45283;DHT22;31023;44.994;1.796;2022-12-18T04:24:22;-1.50;99.90
45283;DHT22;31023;44.994;1.796;2022-12-18T04:26:48;-1.40;99.90
45283;DHT22;31023;44.994;1.796;2022-12-18T04:29:13;-1.30;99.90
45283;DHT22;31023;44.994;1.796;2022-12-18T04:31:39;-1.40;99.90
45283;DHT22;31023;44.994;1.796;2022-12-18T04:34:05;-1.30;99.90
45283;DHT22;31023;44.994;1.796;2022-12-18T04:36:30;-1.30;99.90
45283;DHT22;31023;44.994;1.796;2022-12-18T04:38:56;-1.30;99.90
45283;DHT22;31023;44.994;1.796;2022-12-18T04:41:22;-1.30;99.90
45283;DHT22;31023;44.994;1.796;2022-12-18T04:43:47;-1.20;99.90
45283;DHT22;31023;44.994;1.796;2022-12-18T04:46:13;-1.30;99.90
45283;DHT22;31023;44.994;1.796;2022-12-18T04:48:39;-1.20;99.90
45283;DHT22;31023;44.994;1.796;2022-12-18T04:51:06;-1.20;99.90
45283;DHT22;31023;44.994;1.796;2022-12-18T04:53:32;-1.10;99.90
45283;DHT22;31023;44.994;1.796;2022-12-18T04:56:13;-1.10;99.90
45283;DHT22;31023;44.994;1.796;2022-12-18T04:58:41;-1.10;99.90
45283;DHT22;31023;44.994;1.796;2022-12-18T05:01:08;-1.10;99.90
45283;DHT22;31023;44.994;1.796;2022-12-18T05:03:35;-1.10;99.90
45283;DHT22;31023;44.994;1.796;2022-12-18T05:06:01;-1.10;99.90
45283;DHT22;31023;44.994;1.796;2022-12-18T05:08:26;-1.10;99.90
45283;DHT22;31023;44.994;1.796;2022-12-18T05:13:28;-1.10;99.90
45283;DHT22;31023;44.994;1.796;2022-12-18T05:15:55;-1.00;99.90
45283;DHT22;31023;44.994;1.796;2022-12-18T05:18:22;-1.10;99.90
45283;DHT22;31023;44.994;1.796;2022-12-18T05:20:48;-1.10;99.90
45283;DHT22;31023;44.994;1.796;2022-12-18T05:23:14;-1.10;99.90
45283;DHT22;31023;44.994;1.796;2022-12-18T05:25:40;-1.10;99.90
45283;DHT22;31023;44.994;1.796;2022-12-18T05:28:05;-1.10;99.90
45283;DHT22;31023;44.994;1.796;2022-12-18T05:30:31;-1.10;99.90
45283;DHT22;31023;44.994;1.796;2022-12-18T05:32:57;-1.00;99.90
45283;DHT22;31023;44.994;1.796;2022-12-18T05:35:22;-1.10;99.90
45283;DHT22;31023;44.994;1.796;2022-12-18T05:37:48;-1.10;99.90
45283;DHT22;31023;44.994;1.796;2022-12-18T05:40:14;-1.20;99.90
45283;DHT22;31023;44.994;1.796;2022-12-18T05:42:39;-1.10;99.90
45283;DHT22;31023;44.994;1.796;2022-12-18T05:45:06;-1.10;99.90
45283;DHT22;31023;44.994;1.796;2022-12-18T05:47:31;-1.10;99.90
45283;DHT22;31023;44.994;1.796;2022-12-18T05:49:57;-1.20;99.90
45283;DHT22;31023;44.994;1.796;2022-12-18T05:52:23;-1.30;99.90
45283;DHT22;31023;44.994;1.796;2022-12-18T05:54:49;-1.30;99.90
45283;DHT22;31023;44.994;1.796;2022-12-18T05:57:15;-1.30;99.90
45283;DHT22;31023;44.994;1.796;2022-12-18T05:59:40;-1.30;99.90
45283;DHT22;31023;44.994;1.796;2022-12-18T06:02:06;-1.40;99.90
45283;DHT22;31023;44.994;1.796;2022-12-18T06:04:32;-1.30;99.90
45283;DHT22;31023;44.994;1.796;2022-12-18T06:06:58;-1.30;99.90
45283;DHT22;31023;44.994;1.796;2022-12-18T06:09:24;-1.40;99.90
45283;DHT22;31023;44.994;1.796;2022-12-18T06:11:51;-1.40;99.90
45283;DHT22;31023;44.994;1.796;2022-12-18T06:14:17;-1.40;99.90
45283;DHT22;31023;44.994;1.796;2022-12-18T06:16:43;-1.40;99.90
45283;DHT22;31023;44.994;1.796;2022-12-18T06:19:15;-1.40;99.90
45283;DHT22;31023;44.994;1.796;2022-12-18T06:21:41;-1.40;99.90
45283;DHT22;31023;44.994;1.796;2022-12-18T06:24:07;-1.50;99.90
45283;DHT22;31023;44.994;1.796;2022-12-18T06:26:33;-1.50;99.90
45283;DHT22;31023;44.994;1.796;2022-12-18T06:28:58;-1.60;99.90
45283;DHT22;31023;44.994;1.796;2022-12-18T06:31:25;-1.50;99.90
45283;DHT22;31023;44.994;1.796;2022-12-18T06:33:51;-1.60;99.90
45283;DHT22;31023;44.994;1.796;2022-12-18T06:36:17;-1.60;99.90
45283;DHT22;31023;44.994;1.796;2022-12-18T06:38:43;-1.50;99.90
45283;DHT22;31023;44.994;1.796;2022-12-18T06:41:17;-1.60;99.90
45283;DHT22;31023;44.994;1.796;2022-12-18T06:43:43;-1.50;99.90
45283;DHT22;31023;44.994;1.796;2022-12-18T06:46:10;-1.50;99.90
45283;DHT22;31023;44.994;1.796;2022-12-18T06:48:36;-1.40;99.90
45283;DHT22;31023;44.994;1.796;2022-12-18T06:51:02;-1.40;99.90
45283;DHT22;31023;44.994;1.796;2022-12-18T06:53:28;-1.40;99.90
45283;DHT22;31023;44.994;1.796;2022-12-18T06:56:02;-1.30;99.90
45283;DHT22;31023;44.994;1.796;2022-12-18T06:58:28;-1.40;99.90
45283;DHT22;31023;44.994;1.796;2022-12-18T07:00:54;-1.30;99.90
45283;DHT22;31023;44.994;1.796;2022-12-18T07:03:24;-1.20;99.90
45283;DHT22;31023;44.994;1.796;2022-12-18T07:05:50;-1.20;99.90
45283;DHT22;31023;44.994;1.796;2022-12-18T07:08:15;-1.20;99.90
45283;DHT22;31023;44.994;1.796;2022-12-18T07:10:42;-1.10;99.90
45283;DHT22;31023;44.994;1.796;2022-12-18T07:13:08;-1.10;99.90
45283;DHT22;31023;44.994;1.796;2022-12-18T07:15:34;-1.10;99.90
45283;DHT22;31023;44.994;1.796;2022-12-18T07:17:59;-1.10;99.90
45283;DHT22;31023;44.994;1.796;2022-12-18T07:20:25;-1.10;99.90
45283;DHT22;31023;44.994;1.796;2022-12-18T07:22:51;-1.10;99.90
45283;DHT22;31023;44.994;1.796;2022-12-18T07:25:16;-1.00;99.90
45283;DHT22;31023;44.994;1.796;2022-12-18T07:27:42;-1.10;99.90
45283;DHT22;31023;44.994;1.796;2022-12-18T07:30:08;-1.20;99.90
45283;DHT22;31023;44.994;1.796;2022-12-18T07:32:34;-1.20;99.90
45283;DHT22;31023;44.994;1.796;2022-12-18T07:35:00;-1.20;99.90
45283;DHT22;31023;44.994;1.796;2022-12-18T07:37:26;-1.20;99.90
45283;DHT22;31023;44.994;1.796;2022-12-18T07:39:51;-1.00;99.90
45283;DHT22;31023;44.994;1.796;2022-12-18T07:42:17;-1.00;99.90
45283;DHT22;31023;44.994;1.796;2022-12-18T07:44:58;-1.00;99.90
45283;DHT22;31023;44.994;1.796;2022-12-18T07:47:24;-0.80;99.90
45283;DHT22;31023;44.994;1.796;2022-12-18T07:49:50;-0.80;99.90
45283;DHT22;31023;44.994;1.796;2022-12-18T07:52:16;-0.80;99.90
45283;DHT22;31023;44.994;1.796;2022-12-18T07:54:42;-0.70;99.90
45283;DHT22;31023;44.994;1.796;2022-12-18T07:57:08;-0.30;99.90
45283;DHT22;31023;44.994;1.796;2022-12-18T07:59:34;-0.10;99.90
45283;DHT22;31023;44.994;1.796;2022-12-18T08:02:00;0.00;99.90
45283;DHT22;31023;44.994;1.796;2022-12-18T08:04:26;0.20;99.90
45283;DHT22;31023;44.994;1.796;2022-12-18T08:06:52;0.50;99.90
45283;DHT22;31023;44.994;1.796;2022-12-18T08:09:18;0.50;99.90
45283;DHT22;31023;44.994;1.796;2022-12-18T08:11:44;0.40;99.90
45283;DHT22;31023;44.994;1.796;2022-12-18T08:14:10;0.40;99.90
45283;DHT22;31023;44.994;1.796;2022-12-18T08:16:36;0.50;99.90
45283;DHT22;31023;44.994;1.796;2022-12-18T08:19:02;0.50;99.90
45283;DHT22;31023;44.994;1.796;2022-12-18T08:21:30;0.80;99.90
45283;DHT22;31023;44.994;1.796;2022-12-18T08:23:58;1.10;99.90
45283;DHT22;31023;44.994;1.796;2022-12-18T08:26:26;1.30;99.90
45283;DHT22;31023;44.994;1.796;2022-12-18T08:28:54;1.40;99.90
45283;DHT22;31023;44.994;1.796;2022-12-18T08:31:20;1.40;99.90
45283;DHT22;31023;44.994;1.796;2022-12-18T08:33:48;1.20;99.90
45283;DHT22;31023;44.994;1.796;2022-12-18T08:36:15;1.00;99.90
45283;DHT22;31023;44.994;1.796;2022-12-18T08:38:41;0.80;99.90
45283;DHT22;31023;44.994;1.796;2022-12-18T08:41:10;0.70;99.90
45283;DHT22;31023;44.994;1.796;2022-12-18T08:43:36;0.80;99.90
45283;DHT22;31023;44.994;1.796;2022-12-18T08:46:21;0.80;99.90
45283;DHT22;31023;44.994;1.796;2022-12-18T08:48:47;0.90;99.90
45283;DHT22;31023;44.994;1.796;2022-12-18T08:51:16;1.10;99.90
45283;DHT22;31023;44.994;1.796;2022-12-18T08:53:42;1.60;99.90
45283;DHT22;31023;44.994;1.796;2022-12-18T08:56:08;2.10;99.90
45283;DHT22;31023;44.994;1.796;2022-12-18T08:58:34;2.20;99.90
45283;DHT22;31023;44.994;1.796;2022-12-18T09:01:01;2.50;99.80
45283;DHT22;31023;44.994;1.796;2022-12-18T09:03:27;2.50;99.90
45283;DHT22;31023;44.994;1.796;2022-12-18T09:05:53;2.60;99.90
45283;DHT22;31023;44.994;1.796;2022-12-18T09:08:18;2.70;99.00
45283;DHT22;31023;44.994;1.796;2022-12-18T09:10:47;2.90;99.40
45283;DHT22;31023;44.994;1.796;2022-12-18T09:13:13;3.10;99.20
45283;DHT22;31023;44.994;1.796;2022-12-18T09:15:40;3.20;97.50
45283;DHT22;31023;44.994;1.796;2022-12-18T09:18:06;3.40;98.10
45283;DHT22;31023;44.994;1.796;2022-12-18T09:20:32;3.40;97.60
45283;DHT22;31023;44.994;1.796;2022-12-18T09:22:58;3.80;94.90
45283;DHT22;31023;44.994;1.796;2022-12-18T09:25:23;4.10;93.70
45283;DHT22;31023;44.994;1.796;2022-12-18T09:27:49;4.20;93.70
45283;DHT22;31023;44.994;1.796;2022-12-18T09:30:15;4.20;94.20
45283;DHT22;31023;44.994;1.796;2022-12-18T09:32:40;4.50;96.10
45283;DHT22;31023;44.994;1.796;2022-12-18T09:35:06;4.60;96.50
45283;DHT22;31023;44.994;1.796;2022-12-18T09:37:32;4.50;96.90
45283;DHT22;31023;44.994;1.796;2022-12-18T09:39:58;4.30;97.50
45283;DHT22;31023;44.994;1.796;2022-12-18T09:42:23;4.60;98.10
45283;DHT22;31023;44.994;1.796;2022-12-18T09:44:52;4.60;98.20
45283;DHT22;31023;44.994;1.796;2022-12-18T09:47:36;4.50;98.50
45283;DHT22;31023;44.994;1.796;2022-12-18T09:52:45;4.70;98.30
45283;DHT22;31023;44.994;1.796;2022-12-18T09:57:47;5.30;99.10
45283;DHT22;31023;44.994;1.796;2022-12-18T10:00:21;5.90;97.80
45283;DHT22;31023;44.994;1.796;2022-12-18T10:02:48;6.20;96.80
45283;DHT22;31023;44.994;1.796;2022-12-18T10:05:25;6.40;96.60
45283;DHT22;31023;44.994;1.796;2022-12-18T10:08:54;6.30;97.40
45283;DHT22;31023;44.994;1.796;2022-12-18T10:10:58;6.00;98.00
45283;DHT22;31023;44.994;1.796;2022-12-18T10:16:54;5.90;96.50
45283;DHT22;31023;44.994;1.796;2022-12-18T10:27:26;5.70;97.20
45283;DHT22;31023;44.994;1.796;2022-12-18T10:29:53;5.70;97.90
45283;DHT22;31023;44.994;1.796;2022-12-18T10:32:21;5.90;98.50
45283;DHT22;31023;44.994;1.796;2022-12-18T10:34:48;6.00;99.30
45283;DHT22;31023;44.994;1.796;2022-12-18T10:37:19;6.00;98.60
45283;DHT22;31023;44.994;1.796;2022-12-18T10:39:47;6.10;99.00
45283;DHT22;31023;44.994;1.796;2022-12-18T10:42:29;6.20;99.30
45283;DHT22;31023;44.994;1.796;2022-12-18T10:45:07;6.30;99.90
45283;DHT22;31023;44.994;1.796;2022-12-18T10:47:33;6.40;99.90
45283;DHT22;31023;44.994;1.796;2022-12-18T10:49:59;6.60;99.90
45283;DHT22;31023;44.994;1.796;2022-12-18T10:52:26;6.70;99.90
45283;DHT22;31023;44.994;1.796;2022-12-18T10:54:55;6.60;99.90
45283;DHT22;31023;44.994;1.796;2022-12-18T10:59:57;6.80;99.90
45283;DHT22;31023;44.994;1.796;2022-12-18T11:02:35;7.00;99.90
45283;DHT22;31023;44.994;1.796;2022-12-18T11:05:01;7.10;99.90
45283;DHT22;31023;44.994;1.796;2022-12-18T11:07:47;7.10;99.90
45283;DHT22;31023;44.994;1.796;2022-12-18T11:10:18;7.10;99.90
45283;DHT22;31023;44.994;1.796;2022-12-18T11:12:44;7.00;99.90
45283;DHT22;31023;44.994;1.796;2022-12-18T11:15:21;7.00;99.90
45283;DHT22;31023;44.994;1.796;2022-12-18T11:17:50;7.00;99.90
45283;DHT22;31023;44.994;1.796;2022-12-18T11:20:35;6.80;99.90
45283;DHT22;31023;44.994;1.796;2022-12-18T11:23:04;7.00;99.90
45283;DHT22;31023;44.994;1.796;2022-12-18T11:25:32;7.20;99.90
45283;DHT22;31023;44.994;1.796;2022-12-18T11:30:34;7.40;99.90
45283;DHT22;31023;44.994;1.796;2022-12-18T11:35:40;7.60;99.90
45283;DHT22;31023;44.994;1.796;2022-12-18T11:38:31;7.60;99.90
45283;DHT22;31023;44.994;1.796;2022-12-18T11:43:34;7.70;99.90
45283;DHT22;31023;44.994;1.796;2022-12-18T11:46:05;7.70;99.90
45283;DHT22;31023;44.994;1.796;2022-12-18T11:48:41;7.60;99.90
45283;DHT22;31023;44.994;1.796;2022-12-18T11:51:35;7.70;99.90
45283;DHT22;31023;44.994;1.796;2022-12-18T11:54:00;7.70;99.90
45283;DHT22;31023;44.994;1.796;2022-12-18T11:56:42;7.80;99.90
45283;DHT22;31023;44.994;1.796;2022-12-18T11:59:12;7.90;99.90
45283;DHT22;31023;44.994;1.796;2022-12-18T12:01:49;7.90;99.90
45283;DHT22;31023;44.994;1.796;2022-12-18T12:09:50;8.10;99.90
45283;DHT22;31023;44.994;1.796;2022-12-18T12:17:47;8.30;99.90
45283;DHT22;31023;44.994;1.796;2022-12-18T12:26:16;8.40;99.90
45283;DHT22;31023;44.994;1.796;2022-12-18T12:28:56;8.50;99.90
45283;DHT22;31023;44.994;1.796;2022-12-18T12:31:44;8.50;99.90
45283;DHT22;31023;44.994;1.796;2022-12-18T12:34:17;8.40;99.90
45283;DHT22;31023;44.994;1.796;2022-12-18T12:39:44;8.60;99.90
45283;DHT22;31023;44.994;1.796;2022-12-18T12:42:18;8.60;99.90
45283;DHT22;31023;44.994;1.796;2022-12-18T12:45:06;8.60;99.90
45283;DHT22;31023;44.994;1.796;2022-12-18T12:47:37;8.80;99.90
45283;DHT22;31023;44.994;1.796;2022-12-18T12:50:05;8.70;99.90
45283;DHT22;31023;44.994;1.796;2022-12-18T12:52:44;8.90;99.90
45283;DHT22;31023;44.994;1.796;2022-12-18T12:55:29;8.70;99.90
45283;DHT22;31023;44.994;1.796;2022-12-18T13:00:27;8.80;99.90
45283;DHT22;31023;44.994;1.796;2022-12-18T13:03:19;9.10;99.90
45283;DHT22;31023;44.994;1.796;2022-12-18T13:05:50;9.20;99.90
45283;DHT22;31023;44.994;1.796;2022-12-18T13:08:25;9.50;99.90
45283;DHT22;31023;44.994;1.796;2022-12-18T13:10:53;9.60;99.90
45283;DHT22;31023;44.994;1.796;2022-12-18T13:13:53;9.60;99.90
45283;DHT22;31023;44.994;1.796;2022-12-18T13:16:21;9.70;99.90
45283;DHT22;31023;44.994;1.796;2022-12-18T13:18:55;9.80;99.90
45283;DHT22;31023;44.994;1.796;2022-12-18T13:21:34;9.90;99.90
45283;DHT22;31023;44.994;1.796;2022-12-18T13:24:35;9.90;99.90
45283;DHT22;31023;44.994;1.796;2022-12-18T13:38:37;10.00;99.90
45283;DHT22;31023;44.994;1.796;2022-12-18T13:43:45;10.10;99.90
45283;DHT22;31023;44.994;1.796;2022-12-18T13:46:24;10.10;99.90
45283;DHT22;31023;44.994;1.796;2022-12-18T13:49:01;10.00;99.90
45283;DHT22;31023;44.994;1.796;2022-12-18T13:51:28;10.10;99.90
45283;DHT22;31023;44.994;1.796;2022-12-18T13:54:00;10.10;99.90
45283;DHT22;31023;44.994;1.796;2022-12-18T13:56:31;10.00;99.90
45283;DHT22;31023;44.994;1.796;2022-12-18T14:04:22;10.00;99.90
45283;DHT22;31023;44.994;1.796;2022-12-18T14:06:50;10.00;99.90
45283;DHT22;31023;44.994;1.796;2022-12-18T14:09:30;10.10;99.90
45283;DHT22;31023;44.994;1.796;2022-12-18T14:11:57;10.20;99.90
45283;DHT22;31023;44.994;1.796;2022-12-18T14:14:48;10.20;99.90
45283;DHT22;31023;44.994;1.796;2022-12-18T14:17:15;10.20;99.90
45283;DHT22;31023;44.994;1.796;2022-12-18T14:19:48;10.30;99.90
45283;DHT22;31023;44.994;1.796;2022-12-18T14:22:25;10.30;99.90
45283;DHT22;31023;44.994;1.796;2022-12-18T14:25:25;10.30;99.90
45283;DHT22;31023;44.994;1.796;2022-12-18T14:27:57;10.40;99.90
45283;DHT22;31023;44.994;1.796;2022-12-18T14:30:29;10.30;99.90
45283;DHT22;31023;44.994;1.796;2022-12-18T14:33:15;10.20;99.90
45283;DHT22;31023;44.994;1.796;2022-12-18T14:35:58;10.20;99.90
45283;DHT22;31023;44.994;1.796;2022-12-18T14:40:59;10.20;99.90
45283;DHT22;31023;44.994;1.796;2022-12-18T14:43:27;10.20;99.90
45283;DHT22;31023;44.994;1.796;2022-12-18T14:45:53;10.20;99.90
45283;DHT22;31023;44.994;1.796;2022-12-18T14:51:03;10.20;99.90
45283;DHT22;31023;44.994;1.796;2022-12-18T14:53:48;10.30;99.90
45283;DHT22;31023;44.994;1.796;2022-12-18T14:56:21;10.40;99.90
45283;DHT22;31023;44.994;1.796;2022-12-18T14:58:56;10.30;99.90
45283;DHT22;31023;44.994;1.796;2022-12-18T15:01:37;10.30;99.90
45283;DHT22;31023;44.994;1.796;2022-12-18T15:04:04;10.40;99.90
45283;DHT22;31023;44.994;1.796;2022-12-18T15:06:34;10.50;99.90
45283;DHT22;31023;44.994;1.796;2022-12-18T15:09:06;10.40;99.90
45283;DHT22;31023;44.994;1.796;2022-12-18T15:11:46;10.50;99.90
45283;DHT22;31023;44.994;1.796;2022-12-18T15:17:05;10.40;99.90
45283;DHT22;31023;44.994;1.796;2022-12-18T15:19:43;10.30;99.90
45283;DHT22;31023;44.994;1.796;2022-12-18T15:24:44;10.30;99.90
45283;DHT22;31023;44.994;1.796;2022-12-18T15:27:32;10.20;99.90
45283;DHT22;31023;44.994;1.796;2022-12-18T15:32:29;10.10;99.90
45283;DHT22;31023;44.994;1.796;2022-12-18T15:35:25;10.00;99.90
45283;DHT22;31023;44.994;1.796;2022-12-18T15:37:51;10.00;99.90
45283;DHT22;31023;44.994;1.796;2022-12-18T15:40:23;9.80;99.90
45283;DHT22;31023;44.994;1.796;2022-12-18T15:42:52;9.80;99.90
45283;DHT22;31023;44.994;1.796;2022-12-18T15:45:37;9.70;99.90
45283;DHT22;31023;44.994;1.796;2022-12-18T15:48:21;9.60;99.90
45283;DHT22;31023;44.994;1.796;2022-12-18T15:50:50;9.50;99.90
45283;DHT22;31023;44.994;1.796;2022-12-18T15:53:16;9.80;99.90
45283;DHT22;31023;44.994;1.796;2022-12-18T15:55:41;9.80;99.90
45283;DHT22;31023;44.994;1.796;2022-12-18T15:58:25;9.90;99.90
45283;DHT22;31023;44.994;1.796;2022-12-18T16:00:51;9.80;99.90
45283;DHT22;31023;44.994;1.796;2022-12-18T16:03:17;9.70;99.90
45283;DHT22;31023;44.994;1.796;2022-12-18T16:05:43;9.50;99.90
45283;DHT22;31023;44.994;1.796;2022-12-18T16:08:08;9.60;99.90
45283;DHT22;31023;44.994;1.796;2022-12-18T16:10:35;9.40;99.90
45283;DHT22;31023;44.994;1.796;2022-12-18T16:13:00;9.30;99.90
45283;DHT22;31023;44.994;1.796;2022-12-18T16:15:26;9.30;99.90
45283;DHT22;31023;44.994;1.796;2022-12-18T16:17:52;9.50;99.90
45283;DHT22;31023;44.994;1.796;2022-12-18T16:20:20;9.50;99.90
45283;DHT22;31023;44.994;1.796;2022-12-18T16:22:47;9.40;99.90
45283;DHT22;31023;44.994;1.796;2022-12-18T16:25:19;9.20;99.90
45283;DHT22;31023;44.994;1.796;2022-12-18T16:27:45;9.10;99.90
45283;DHT22;31023;44.994;1.796;2022-12-18T16:30:21;9.10;99.90
45283;DHT22;31023;44.994;1.796;2022-12-18T16:32:47;9.30;99.90
45283;DHT22;31023;44.994;1.796;2022-12-18T16:35:14;9.20;99.90
45283;DHT22;31023;44.994;1.796;2022-12-18T16:37:40;9.00;99.90
45283;DHT22;31023;44.994;1.796;2022-12-18T16:40:08;9.10;99.90
45283;DHT22;31023;44.994;1.796;2022-12-18T16:42:36;9.10;99.90
45283;DHT22;31023;44.994;1.796;2022-12-18T16:45:03;9.20;99.90
45283;DHT22;31023;44.994;1.796;2022-12-18T16:47:29;9.20;99.90
45283;DHT22;31023;44.994;1.796;2022-12-18T16:49:54;9.30;99.90
45283;DHT22;31023;44.994;1.796;2022-12-18T16:52:20;9.20;99.90
45283;DHT22;31023;44.994;1.796;2022-12-18T16:54:46;9.30;99.90
45283;DHT22;31023;44.994;1.796;2022-12-18T16:57:13;9.40;99.90
45283;DHT22;31023;44.994;1.796;2022-12-18T16:59:39;9.40;99.90
45283;DHT22;31023;44.994;1.796;2022-12-18T17:02:10;9.30;99.90
45283;DHT22;31023;44.994;1.796;2022-12-18T17:04:37;9.30;99.90
45283;DHT22;31023;44.994;1.796;2022-12-18T17:07:03;9.30;99.90
45283;DHT22;31023;44.994;1.796;2022-12-18T17:09:29;9.30;99.90
45283;DHT22;31023;44.994;1.796;2022-12-18T17:11:55;9.30;99.90
45283;DHT22;31023;44.994;1.796;2022-12-18T17:14:24;9.20;99.90
45283;DHT22;31023;44.994;1.796;2022-12-18T17:16:50;9.20;99.90
45283;DHT22;31023;44.994;1.796;2022-12-18T17:19:16;9.20;99.90
45283;DHT22;31023;44.994;1.796;2022-12-18T17:21:43;9.10;99.90
45283;DHT22;31023;44.994;1.796;2022-12-18T17:24:09;9.10;99.90
45283;DHT22;31023;44.994;1.796;2022-12-18T17:26:35;9.20;99.90
45283;DHT22;31023;44.994;1.796;2022-12-18T17:29:02;9.00;99.90
45283;DHT22;31023;44.994;1.796;2022-12-18T17:31:28;9.00;99.90
45283;DHT22;31023;44.994;1.796;2022-12-18T17:33:55;9.00;99.90
45283;DHT22;31023;44.994;1.796;2022-12-18T17:36:22;9.00;99.90
45283;DHT22;31023;44.994;1.796;2022-12-18T17:38:55;8.80;99.90